Time;durP1;ratioP1;P1;durP2;ratioP2;P2;SDS_P1;SDS_P2;PMS_P1;PMS_P2;Temp;Humidity;BMP_temperature;BMP_pressure;BME280_temperature;BME280_humidity;BME280_pressure;Samples;Min_cycle;Max_cycle;Signal;HPM_P1;HPM_P2
2023/02/06 00:00:57;;;;;;;;;;;;;;;-4.17;67.92;95333.84;4141322;28;19922;-62
2023/02/06 00:02:58;;;;;;;;;;;;;;;-4.14;67.89;95341.41;4153714;28;20016;-61
2023/02/06 00:05:00;;;;;;;;;;;;;;;-4.08;67.42;95347.22;4142368;28;19926;-61
2023/02/06 00:07:01;;;;;;;;;;;;;;;-3.98;67.63;95343.41;4140926;28;20341;-61
2023/02/06 00:09:03;;;;;;;;;;;;;;;-3.99;67.27;95341.75;4145835;28;19957;-61
2023/02/06 00:25:04;;;;;;;7.88;5.95;;;;;;;-4.09;68.24;95355.75;4240892;27;20887;-43
2023/02/06 00:27:06;;;;;;;8.63;5.03;;;;;;;-4.17;68.42;95358.63;4240954;27;20089;-42
2023/02/06 00:29:08;;;;;;;9.85;5.28;;;;;;;-4.05;67.69;95365.81;4241064;27;20051;-43
2023/02/06 00:31:10;;;;;;;7.65;4.93;;;;;;;-3.95;67.92;95366.34;4236279;27;20055;-43
2023/02/06 00:33:12;;;;;;;6.80;4.55;;;;;;;-3.79;68.30;95369.19;4232610;28;20052;-43
2023/02/06 00:35:13;;;;;;;7.75;4.93;;;;;;;-3.72;67.04;95368.91;4240865;27;20598;-43
2023/02/06 00:37:16;;;;;;;7.65;5.05;;;;;;;-4.09;67.97;95371.13;4239758;27;20047;-42
2023/02/06 00:39:18;;;;;;;8.38;4.75;;;;;;;-4.63;68.80;95376.34;4235773;27;20047;-42
2023/02/06 00:41:20;;;;;;;8.07;4.93;;;;;;;-4.71;70.10;95372.38;4226010;27;20060;-44
2023/02/06 00:43:22;;;;;;;9.10;5.40;;;;;;;-4.59;70.24;95367.69;4232831;28;20043;-42
2023/02/06 00:45:24;;;;;;;9.15;5.45;;;;;;;-4.44;69.14;95371.44;4230886;28;20086;-42
2023/02/06 00:47:25;;;;;;;9.50;5.72;;;;;;;-4.28;68.58;95376.91;4236670;27;20043;-43
2023/02/06 00:49:27;;;;;;;9.65;5.32;;;;;;;-4.15;68.02;95378.13;4231742;27;20070;-42
2023/02/06 00:51:29;;;;;;;8.65;5.05;;;;;;;-4.06;67.59;95382.09;4229637;28;20044;-42
2023/02/06 00:53:31;;;;;;;6.97;4.88;;;;;;;-3.92;67.85;95382.41;4225179;28;20048;-44
2023/02/06 00:55:32;;;;;;;7.15;5.25;;;;;;;-3.91;66.91;95386.66;4235898;28;20058;-44
2023/02/06 00:57:34;;;;;;;8.93;4.90;;;;;;;-3.81;67.49;95382.03;4225682;28;20476;-43
2023/02/06 00:59:36;;;;;;;7.55;4.75;;;;;;;-3.72;66.24;95381.72;4241518;27;20593;-43
2023/02/06 01:01:38;;;;;;;9.48;5.07;;;;;;;-3.67;66.37;95385.84;4239151;27;20134;-42
2023/02/06 01:03:39;;;;;;;10.02;5.25;;;;;;;-3.66;66.59;95383.19;4241121;27;20047;-43
2023/02/06 01:05:41;;;;;;;8.93;4.82;;;;;;;-3.81;66.37;95384.59;4224701;28;20043;-43
2023/02/06 01:07:43;;;;;;;7.28;4.70;;;;;;;-3.74;66.03;95387.78;4230929;28;20051;-43
2023/02/06 01:09:44;;;;;;;7.70;5.25;;;;;;;-3.68;65.81;95390.09;4232147;28;20040;-43
2023/02/06 01:11:46;;;;;;;7.65;4.70;;;;;;;-3.65;66.45;95384.06;4223984;28;20125;-43
2023/02/06 01:13:48;;;;;;;9.50;4.82;;;;;;;-3.73;65.34;95390.25;4240195;28;20043;-43
2023/02/06 01:15:50;;;;;;;7.35;4.68;;;;;;;-3.75;64.98;95391.22;4239577;27;20461;-43
2023/02/06 01:17:51;;;;;;;7.55;4.95;;;;;;;-3.74;65.00;95388.63;4230434;27;20070;-44
2023/02/06 01:19:53;;;;;;;9.90;4.68;;;;;;;-3.66;64.94;95390.03;4224284;28;20131;-42
2023/02/06 01:21:55;;;;;;;7.88;4.63;;;;;;;-3.67;64.23;95403.75;4224956;28;20468;-44
2023/02/06 01:23:56;;;;;;;6.47;4.00;;;;;;;-3.72;63.88;95396.25;4228329;28;20063;-43
2023/02/06 01:25:58;;;;;;;6.32;4.00;;;;;;;-3.85;63.44;95400.97;4227710;28;20186;-42
2023/02/06 01:28:00;;;;;;;7.47;4.13;;;;;;;-3.89;63.61;95394.28;4215682;28;20106;-44
2023/02/06 01:30:02;;;;;;;6.88;3.92;;;;;;;-4.05;63.10;95398.28;4214328;28;20044;-45
2023/02/06 01:32:04;;;;;;;7.97;4.18;;;;;;;-4.02;63.38;95393.03;4224985;27;20458;-43
2023/02/06 01:34:06;;;;;;;6.13;4.05;;;;;;;-4.03;63.50;95392.19;4213148;28;20116;-45
2023/02/06 01:36:09;;;;;;;8.40;4.38;;;;;;;-3.97;63.43;95397.13;4212549;28;20055;-43
2023/02/06 01:38:10;;;;;;;6.65;3.90;;;;;;;-4.04;63.18;95399.94;4227709;28;20508;-59
2023/02/06 01:40:14;;;;;;;5.85;3.90;;;;;;;-4.01;63.58;95394.72;4228657;28;20079;-60
2023/02/06 01:42:16;;;;;;;7.60;4.25;;;;;;;-3.87;63.69;95407.88;4219992;28;20204;-60
2023/02/06 01:44:23;;;;;;;6.70;4.60;;;;;;;-3.81;63.59;95402.50;4214317;28;20521;-59
2023/02/06 01:46:24;;;;;;;6.82;4.15;;;;;;;-3.73;63.17;95402.25;4223366;28;20139;-59
2023/02/06 01:48:35;;;;;;;7.47;5.00;;;;;;;-3.63;63.18;95403.59;4214037;28;20534;-61
2023/02/06 01:50:38;;;;;;;8.45;4.80;;;;;;;-3.55;62.73;95405.84;4216344;28;20120;-59
2023/02/06 01:52:40;;;;;;;7.65;5.00;;;;;;;-3.52;62.50;95410.88;4211023;28;20143;-59
2023/02/06 01:54:45;;;;;;;7.55;5.10;;;;;;;-3.51;62.34;95407.41;4220662;28;20043;-59
2023/02/06 01:56:49;;;;;;;6.97;4.22;;;;;;;-3.47;62.36;95401.28;4210377;28;20071;-57
2023/02/06 01:58:54;;;;;;;8.13;4.28;;;;;;;-3.45;61.90;95409.75;4212083;28;20547;-60
2023/02/06 02:00:56;;;;;;;6.43;4.15;;;;;;;-3.41;61.98;95408.72;4209607;28;20079;-58
2023/02/06 02:02:58;;;;;;;6.97;4.53;;;;;;;-3.37;61.38;95412.03;4258249;27;20516;-60
2023/02/06 02:05:00;;;;;;;7.75;4.50;;;;;;;-3.34;61.08;95397.34;4212763;28;20506;-60
2023/02/06 02:07:07;;;;;;;6.38;4.07;;;;;;;-3.35;60.81;95398.25;4221134;28;20165;-59
2023/02/06 02:09:08;;;;;;;7.07;4.13;;;;;;;-3.30;61.26;95400.66;4214254;28;20120;-60
2023/02/06 02:11:17;;;;;;;7.50;5.10;;;;;;;-3.27;60.80;95402.25;4227804;28;20047;-59
2023/02/06 02:13:19;;;;;;;7.55;4.20;;;;;;;-3.31;61.57;95396.44;4211065;28;20058;-60
2023/02/06 02:15:23;;;;;;;7.55;4.63;;;;;;;-3.38;61.69;95405.22;4217919;28;20625;-60
2023/02/06 02:17:44;;;;;;;7.82;4.22;;;;;;;-3.37;62.37;95407.72;4225584;28;20080;-60
2023/02/06 02:20:13;;;;;;;6.57;4.85;;;;;;;-3.27;62.03;95402.25;4217213;28;20079;-58
2023/02/06 02:22:17;;;;;;;6.18;4.07;;;;;;;-3.26;61.01;95404.75;4223138;28;20069;-60
2023/02/06 02:24:36;;;;;;;7.35;3.95;;;;;;;-3.17;61.24;95401.00;4218449;28;20512;-58
2023/02/06 02:26:59;;;;;;;7.00;4.50;;;;;;;-3.16;60.88;95398.41;4214387;28;20073;-58
2023/02/06 02:29:19;;;;;;;6.60;4.30;;;;;;;-3.20;60.36;95406.28;4214128;28;20117;-60
2023/02/06 02:31:58;;;;;;;8.70;4.38;;;;;;;-3.26;60.68;95409.06;4222162;28;20051;-59
2023/02/06 02:34:26;;;;;;;11.65;5.65;;;;;;;-3.25;61.15;95415.84;4210906;28;20051;-60
2023/02/06 02:36:40;;;;;;;9.57;5.00;;;;;;;-3.24;61.50;95410.66;4199556;28;20510;-58
2023/02/06 02:39:00;;;;;;;7.63;4.65;;;;;;;-3.17;61.67;95424.91;4218246;28;20043;-60
2023/02/06 02:41:18;;;;;;;7.32;4.22;;;;;;;-3.16;61.41;95418.03;4213849;28;20126;-59
2023/02/06 02:43:28;;;;;;;9.48;4.20;;;;;;;-3.17;61.36;95414.66;4248903;27;20376;-58
2023/02/06 02:45:39;;;;;;;7.07;4.43;;;;;;;-3.09;61.35;95416.94;4216240;28;20099;-60
2023/02/06 02:47:50;;;;;;;9.57;4.57;;;;;;;-3.10;61.30;95410.13;4224395;28;20051;-59
2023/02/06 02:49:53;;;;;;;9.40;3.83;;;;;;;-3.12;61.31;95412.75;4244580;27;20127;-59
2023/02/06 02:51:55;;;;;;;5.90;3.80;;;;;;;-3.19;61.20;95416.44;4211650;28;20052;-59
2023/02/06 02:53:57;;;;;;;6.90;4.40;;;;;;;-3.17;61.30;95416.38;4222363;28;20150;-59
2023/02/06 02:55:59;;;;;;;9.55;4.50;;;;;;;-3.13;61.51;95423.06;4213072;28;20048;-61
2023/02/06 02:58:08;;;;;;;6.45;3.95;;;;;;;-3.13;60.55;95420.50;4212300;28;20047;-59
2023/02/06 03:00:10;;;;;;;6.80;4.32;;;;;;;-3.22;60.39;95420.88;4210130;28;20060;-59
2023/02/06 03:02:20;;;;;;;6.90;4.22;;;;;;;-3.25;60.81;95428.66;4223566;28;20499;-59
2023/02/06 03:04:26;;;;;;;7.13;4.28;;;;;;;-3.17;60.65;95429.19;4212932;28;20035;-57
2023/02/06 03:06:43;;;;;;;7.25;4.00;;;;;;;-3.19;60.48;95426.69;4221417;28;20040;-60
2023/02/06 03:08:48;;;;;;;6.90;4.25;;;;;;;-3.16;60.92;95428.28;4253611;27;20056;-61
2023/02/06 03:11:02;;;;;;;6.47;4.40;;;;;;;-3.11;60.69;95436.66;4226225;28;20047;-61
2023/02/06 03:13:32;;;;;;;6.65;4.38;;;;;;;-3.11;60.57;95434.09;4224354;28;20059;-59
2023/02/06 03:16:20;;;;;;;8.65;4.45;;;;;;;-3.04;60.73;95432.97;4224636;28;20155;-58
2023/02/06 03:19:03;;;;;;;9.77;4.60;;;;;;;-3.05;60.01;95436.44;4227245;28;20358;-60
2023/02/06 03:21:05;;;;;;;15.02;7.05;;;;;;;-3.33;59.44;95437.47;4166795;28;20072;-61
2023/02/06 03:23:07;;;;;;;8.23;5.03;;;;;;;-3.51;59.99;95436.44;4192999;28;20176;-59
2023/02/06 03:25:12;;;;;;;8.10;5.35;;;;;;;-3.92;61.11;95437.91;4196986;28;20076;-59
2023/02/06 03:27:15;;;;;;;6.57;5.00;;;;;;;-4.16;62.25;95437.84;4207299;28;20072;-43
2023/02/06 03:29:18;;;;;;;8.95;5.13;;;;;;;-4.46;62.49;95447.41;4202790;28;20048;-43
2023/02/06 03:31:26;;;;;;;10.30;5.20;;;;;;;-4.37;63.04;95448.81;4207377;28;20075;-43
2023/02/06 03:33:34;;;;;;;6.90;4.90;;;;;;;-4.42;62.83;95448.13;4188800;28;20107;-44
2023/02/06 03:35:36;;;;;;;7.25;5.13;;;;;;;-4.47;62.87;95450.00;4198666;28;20052;-44
2023/02/06 03:37:38;;;;;;;10.52;5.25;;;;;;;-4.54;62.92;95457.03;4209349;28;20075;-43
2023/02/06 03:39:40;;;;;;;6.88;4.40;;;;;;;-4.64;62.69;95450.56;4210136;28;20067;-42
2023/02/06 03:41:43;;;;;;;7.88;4.97;;;;;;;-4.57;62.70;95450.31;4208495;28;20070;-43
2023/02/06 03:43:46;;;;;;;7.57;5.47;;;;;;;-4.56;62.98;95449.44;4208102;28;20144;-42
2023/02/06 03:45:50;;;;;;;7.93;5.13;;;;;;;-4.60;62.33;95449.59;4207162;28;20281;-43
2023/02/06 03:47:53;;;;;;;7.85;5.03;;;;;;;-4.80;62.75;95453.59;4206971;28;20133;-43
2023/02/06 03:49:58;;;;;;;8.18;5.03;;;;;;;-4.80;62.92;95455.31;4198139;28;20052;-44
2023/02/06 03:52:12;;;;;;;6.90;4.90;;;;;;;-4.92;63.52;95451.44;4208718;28;20070;-42
2023/02/06 03:54:16;;;;;;;6.55;4.72;;;;;;;-4.90;62.40;95447.13;4207404;28;20516;-44
2023/02/06 03:56:29;;;;;;;7.00;4.45;;;;;;;-4.90;62.38;95452.22;4208042;28;20067;-43
2023/02/06 03:58:31;;;;;;;7.72;5.40;;;;;;;-4.95;62.59;95454.06;4210088;28;20069;-43
2023/02/06 04:00:33;;;;;;;7.22;4.72;;;;;;;-5.04;63.03;95460.28;4203813;28;20075;-41
2023/02/06 04:02:36;;;;;;;10.57;6.00;;;;;;;-4.89;63.90;95455.59;4204514;28;20130;-43
2023/02/06 04:04:39;;;;;;;8.65;5.78;;;;;;;-4.82;63.35;95454.53;4207878;28;20059;-42
2023/02/06 04:06:40;;;;;;;9.45;6.05;;;;;;;-4.69;62.87;95458.34;4209342;28;20074;-41
2023/02/06 04:08:42;;;;;;;8.30;5.18;;;;;;;-4.65;62.44;95454.00;4208647;28;20056;-42
2023/02/06 04:10:44;;;;;;;8.30;5.28;;;;;;;-4.82;62.86;95459.63;4207149;28;20040;-41
2023/02/06 04:12:45;;;;;;;13.57;7.18;;;;;;;-4.77;62.78;95456.06;4209482;28;20051;-41
2023/02/06 04:14:47;;;;;;;8.20;5.32;;;;;;;-4.79;62.03;95451.88;4206507;28;20080;-42
2023/02/06 04:16:49;;;;;;;7.03;5.00;;;;;;;-4.77;62.14;95460.34;4203611;28;20044;-43
2023/02/06 04:18:51;;;;;;;7.50;5.05;;;;;;;-4.69;61.99;95454.97;4203830;28;20108;-43
2023/02/06 04:20:52;;;;;;;8.77;5.65;;;;;;;-4.76;61.76;95464.56;4210031;28;20071;-42
2023/02/06 04:22:55;;;;;;;8.60;5.18;;;;;;;-4.85;62.53;95463.13;4208496;28;20078;-42
2023/02/06 04:24:56;;;;;;;8.25;5.50;;;;;;;-4.87;61.90;95466.63;4211888;28;20582;-43
2023/02/06 04:26:58;;;;;;;8.32;5.43;;;;;;;-4.78;62.23;95466.31;4222075;28;20074;-45
2023/02/06 04:28:59;;;;;;;8.85;5.78;;;;;;;-4.70;61.93;95466.94;4215056;28;20157;-43
2023/02/06 04:31:01;;;;;;;8.23;4.97;;;;;;;-4.89;61.74;95468.38;4219727;28;20053;-42
2023/02/06 04:33:04;;;;;;;8.80;5.55;;;;;;;-5.16;62.34;95473.47;4226374;28;20621;-42
2023/02/06 04:35:06;;;;;;;6.75;5.22;;;;;;;-5.13;63.22;95468.25;4210009;28;20363;-42
2023/02/06 04:37:11;;;;;;;10.23;6.05;;;;;;;-4.93;62.84;95462.53;4209634;28;20048;-41
2023/02/06 04:39:12;;;;;;;8.52;5.90;;;;;;;-4.83;62.23;95470.75;4221268;28;20058;-42
2023/02/06 04:41:14;;;;;;;9.48;6.07;;;;;;;-4.91;62.44;95475.25;4225219;28;20461;-42
2023/02/06 04:43:16;;;;;;;8.88;5.93;;;;;;;-4.94;61.58;95479.59;4226155;28;20071;-44
2023/02/06 04:45:17;;;;;;;8.02;5.45;;;;;;;-5.01;62.07;95483.22;4224922;28;20135;-43
2023/02/06 04:47:19;;;;;;;8.95;6.20;;;;;;;-4.92;62.60;95478.72;4214729;28;20059;-43
2023/02/06 04:49:21;;;;;;;8.77;6.05;;;;;;;-5.11;62.53;95481.81;4209793;28;20525;-42
2023/02/06 04:51:22;;;;;;;8.60;5.90;;;;;;;-5.24;62.17;95483.06;4226398;28;20073;-43
2023/02/06 04:53:24;;;;;;;8.80;5.63;;;;;;;-5.31;62.95;95484.97;4226693;28;20047;-43
2023/02/06 04:55:26;;;;;;;10.80;6.55;;;;;;;-5.24;63.34;95485.63;4216666;28;20064;-44
2023/02/06 04:57:27;;;;;;;12.73;7.35;;;;;;;-5.08;62.70;95486.81;4210285;28;20123;-42
2023/02/06 04:59:29;;;;;;;11.15;7.05;;;;;;;-5.17;62.64;95493.03;4225996;28;20431;-43
2023/02/06 05:01:31;;;;;;;9.88;6.53;;;;;;;-5.04;62.84;95488.41;4227817;28;20124;-44
2023/02/06 05:03:33;;;;;;;8.18;5.72;;;;;;;-4.88;62.54;95485.38;4228169;28;20048;-42
2023/02/06 05:05:34;;;;;;;11.75;8.10;;;;;;;-4.75;62.30;95495.19;4216933;28;20541;-39
2023/02/06 05:07:36;;;;;;;9.75;6.38;;;;;;;-4.63;61.46;95488.03;4227842;27;20044;-43
2023/02/06 05:09:38;;;;;;;10.68;6.75;;;;;;;-4.95;60.88;95492.41;4228144;28;20047;-44
2023/02/06 05:11:40;;;;;;;11.93;7.15;;;;;;;-4.85;61.59;95500.63;4226903;28;20044;-44
2023/02/06 05:13:41;;;;;;;19.88;8.82;;;;;;;-5.27;62.02;95506.13;4229135;28;20112;-43
2023/02/06 05:15:43;;;;;;;17.23;8.68;;;;;;;-5.52;63.04;95499.16;4225311;28;20441;-43
2023/02/06 05:17:45;;;;;;;12.38;7.95;;;;;;;-5.62;63.34;95507.97;4227241;28;20039;-43
2023/02/06 05:19:46;;;;;;;14.88;8.35;;;;;;;-5.88;63.92;95504.38;4217982;27;20052;-44
2023/02/06 05:21:48;;;;;;;13.20;8.90;;;;;;;-6.08;65.34;95510.03;4226213;28;20048;-42
2023/02/06 05:23:50;;;;;;;14.40;9.43;;;;;;;-6.14;64.99;95512.75;4226799;28;20472;-44
2023/02/06 05:25:51;;;;;;;15.60;10.85;;;;;;;-6.16;65.72;95516.22;4221359;28;20476;-43
2023/02/06 05:27:53;;;;;;;17.83;10.95;;;;;;;-6.09;66.09;95510.91;4225011;28;20491;-42
2023/02/06 05:29:55;;;;;;;18.27;10.73;;;;;;;-6.07;64.91;95514.25;4226746;28;20097;-41
2023/02/06 05:31:57;;;;;;;20.42;11.68;;;;;;;-5.93;65.38;95521.53;4228923;28;20048;-43
2023/02/06 05:33:59;;;;;;;16.55;9.98;;;;;;;-5.82;64.26;95518.72;4229273;28;20078;-41
2023/02/06 05:36:06;;;;;;;22.52;11.05;;;;;;;-5.64;63.76;95522.47;4218048;28;20513;-42
2023/02/06 05:38:07;;;;;;;18.20;10.10;;;;;;;-5.52;63.24;95524.69;4227217;28;20075;-44
2023/02/06 05:40:10;;;;;;;14.23;9.13;;;;;;;-5.56;62.64;95526.50;4223179;28;20048;-44
2023/02/06 05:42:11;;;;;;;19.13;9.75;;;;;;;-5.33;62.50;95524.16;4221911;28;20055;-43
2023/02/06 05:44:13;;;;;;;15.93;9.35;;;;;;;-5.61;62.29;95533.44;4229040;28;20044;-44
2023/02/06 05:46:15;;;;;;;16.88;10.63;;;;;;;-5.62;62.80;95525.81;4224513;28;20079;-43
2023/02/06 05:48:17;;;;;;;20.02;11.75;;;;;;;-5.47;62.36;95533.06;4217778;28;20043;-42
2023/02/06 05:50:19;;;;;;;18.23;10.25;;;;;;;-5.50;61.67;95530.59;4228140;28;20096;-45
2023/02/06 05:52:21;;;;;;;15.93;10.07;;;;;;;-5.37;62.46;95541.31;4215510;28;20101;-43
2023/02/06 05:54:22;;;;;;;19.02;10.70;;;;;;;-5.22;61.71;95534.94;4227227;28;20066;-44
2023/02/06 05:56:24;;;;;;;23.67;11.32;;;;;;;-5.03;61.83;95530.16;4217155;28;20535;-42
2023/02/06 05:58:26;;;;;;;21.17;10.85;;;;;;;-4.92;60.48;95538.31;4220709;28;20050;-44
2023/02/06 06:00:28;;;;;;;24.15;11.77;;;;;;;-5.01;59.89;95538.56;4211957;28;20543;-44
2023/02/06 06:02:29;;;;;;;18.60;10.35;;;;;;;-4.97;59.86;95546.13;4225562;28;20046;-43
2023/02/06 06:04:31;;;;;;;18.60;11.38;;;;;;;-5.11;59.89;95539.75;4224513;28;20063;-42
2023/02/06 06:06:33;;;;;;;17.30;10.38;;;;;;;-5.23;59.72;95540.91;4221656;28;20065;-45
2023/02/06 06:08:35;;;;;;;17.60;10.70;;;;;;;-5.18;60.64;95545.03;4228897;28;20075;-44
2023/02/06 06:10:36;;;;;;;18.52;11.63;;;;;;;-5.09;60.45;95545.66;4216184;28;20043;-45
2023/02/06 06:12:38;;;;;;;16.70;11.02;;;;;;;-4.95;60.43;95546.91;4225610;28;20083;-42
2023/02/06 06:14:40;;;;;;;23.30;10.80;;;;;;;-4.85;59.78;95544.91;4221210;28;20507;-43
2023/02/06 06:16:41;;;;;;;22.05;11.85;;;;;;;-4.64;59.85;95548.56;4217271;28;20504;-45
2023/02/06 06:18:43;;;;;;;18.50;11.15;;;;;;;-4.44;59.35;95550.47;4228355;28;20043;-43
2023/02/06 06:20:45;;;;;;;20.15;11.55;;;;;;;-4.32;59.01;95554.41;4215297;28;20040;-45
2023/02/06 06:22:47;;;;;;;16.52;10.75;;;;;;;-4.24;58.62;95557.53;4215477;28;20094;-44
2023/02/06 06:24:49;;;;;;;14.93;9.45;;;;;;;-4.15;58.18;95556.38;4211388;28;20084;-43
2023/02/06 06:26:51;;;;;;;16.80;9.85;;;;;;;-3.99;58.36;95557.56;4213832;28;20488;-45
2023/02/06 06:28:52;;;;;;;17.90;10.23;;;;;;;-3.86;57.85;95546.94;4216247;28;20074;-45
2023/02/06 06:31:02;;;;;;;16.58;9.38;;;;;;;-3.79;57.01;95543.28;4217796;28;20077;-44
2023/02/06 06:33:04;;;;;;;17.40;9.70;;;;;;;-3.71;57.07;95537.00;4211101;28;20130;-44
2023/02/06 06:35:06;;;;;;;18.33;9.93;;;;;;;-3.64;56.74;95534.22;4227101;28;20133;-44
2023/02/06 06:37:07;;;;;;;18.05;9.25;;;;;;;-3.54;56.96;95544.09;4227708;28;20051;-45
2023/02/06 06:39:09;;;;;;;16.08;9.27;;;;;;;-3.51;57.15;95540.59;4228128;28;20369;-43
2023/02/06 06:41:11;;;;;;;15.50;8.65;;;;;;;-3.50;56.10;95553.34;4212842;28;20063;-43
2023/02/06 06:43:13;;;;;;;14.50;8.00;;;;;;;-3.45;56.66;95562.63;4211498;28;20051;-43
2023/02/06 06:45:15;;;;;;;13.63;7.78;;;;;;;-3.40;56.58;95563.28;4216475;28;20047;-43
2023/02/06 06:47:16;;;;;;;11.82;7.20;;;;;;;-3.30;55.85;95552.66;4228227;28;20652;-44
2023/02/06 06:49:18;;;;;;;10.75;6.95;;;;;;;-3.21;55.69;95556.59;4213213;28;20132;-43
2023/02/06 06:51:20;;;;;;;13.75;7.90;;;;;;;-3.13;55.66;95554.59;4216851;28;20104;-42
2023/02/06 06:53:22;;;;;;;12.15;7.03;;;;;;;-3.16;54.30;95554.72;4228289;28;20055;-42
2023/02/06 06:55:23;;;;;;;13.80;7.47;;;;;;;-3.11;54.69;95559.69;4227148;28;20361;-43
2023/02/06 06:57:25;;;;;;;12.52;7.22;;;;;;;-3.03;54.84;95562.81;4227173;28;20444;-48
2023/02/06 06:59:27;;;;;;;14.70;7.68;;;;;;;-2.95;55.54;95571.03;4228129;28;20134;-42
2023/02/06 07:01:28;;;;;;;11.77;7.18;;;;;;;-3.18;54.21;95577.03;4219508;28;20048;-45
2023/02/06 07:03:30;;;;;;;9.38;6.25;;;;;;;-3.37;53.41;95573.44;4215034;28;20069;-44
2023/02/06 07:05:32;;;;;;;10.27;6.93;;;;;;;-3.64;53.75;95570.91;4222149;27;20048;-43
2023/02/06 07:07:34;;;;;;;11.00;6.15;;;;;;;-3.55;54.69;95564.63;4227873;28;20051;-41
2023/02/06 07:09:36;;;;;;;15.25;7.63;;;;;;;-3.66;54.94;95575.25;4214449;28;20048;-45
2023/02/06 07:11:37;;;;;;;12.13;6.75;;;;;;;-3.60;54.58;95584.47;4223740;28;20043;-44
2023/02/06 07:13:39;;;;;;;11.00;6.47;;;;;;;-3.75;54.62;95581.50;4222412;28;20047;-42
2023/02/06 07:15:42;;;;;;;10.90;6.68;;;;;;;-3.97;54.49;95588.25;4226154;28;20071;-44
2023/02/06 07:17:43;;;;;;;8.90;5.72;;;;;;;-4.19;54.50;95594.06;4219115;28;20048;-43
2023/02/06 07:19:47;;;;;;;11.65;5.25;;;;;;;-4.31;55.97;95596.97;4210907;28;20051;-44
2023/02/06 07:21:48;;;;;;;11.27;6.03;;;;;;;-4.32;55.64;95608.94;4221874;27;20516;-45
2023/02/06 07:23:50;;;;;;;43.20;18.13;;;;;;;-4.30;56.35;95608.91;4215728;28;20081;-43
2023/02/06 07:25:51;;;;;;;11.75;7.13;;;;;;;-4.10;55.94;95618.50;4212136;28;20066;-43
2023/02/06 07:27:53;;;;;;;11.32;6.35;;;;;;;-4.12;55.21;95610.03;4222766;28;20481;-45
2023/02/06 07:29:55;;;;;;;13.05;7.15;;;;;;;-4.24;55.33;95603.56;4223907;28;20280;-43
2023/02/06 07:31:57;;;;;;;14.65;6.95;;;;;;;-4.20;55.74;95602.59;4210241;28;20517;-43
2023/02/06 07:33:59;;;;;;;10.68;6.15;;;;;;;-4.69;55.61;95609.19;4218855;28;20492;-41
2023/02/06 07:36:01;;;;;;;11.13;6.03;;;;;;;-4.67;56.28;95599.75;4216159;28;20071;-44
2023/02/06 07:38:04;;;;;;;10.65;6.20;;;;;;;-4.98;56.80;95610.06;4226092;28;20054;-44
2023/02/06 07:40:06;;;;;;;14.82;6.63;;;;;;;-4.71;57.44;95605.00;4227098;28;20062;-44
2023/02/06 07:42:08;;;;;;;13.38;6.90;;;;;;;-4.62;56.40;95607.31;4227312;28;20456;-43
2023/02/06 07:44:09;;;;;;;9.02;6.45;;;;;;;-4.54;56.35;95606.22;4227344;28;20496;-43
2023/02/06 07:46:11;;;;;;;15.10;7.35;;;;;;;-4.67;56.57;95604.03;4224760;28;20082;-45
2023/02/06 07:48:13;;;;;;;12.75;7.47;;;;;;;-4.79;56.72;95605.25;4227367;28;20085;-44
2023/02/06 07:50:15;;;;;;;14.65;8.52;;;;;;;-4.62;57.17;95604.75;4227506;28;20097;-45
2023/02/06 07:52:16;;;;;;;13.55;7.93;;;;;;;-4.51;56.69;95612.13;4226520;28;20079;-44
2023/02/06 07:54:18;;;;;;;15.02;8.27;;;;;;;-4.43;56.64;95613.56;4225080;28;20159;-45
2023/02/06 07:56:24;;;;;;;14.98;9.32;;;;;;;-4.25;56.20;95616.44;4216502;28;20036;-45
2023/02/06 07:58:26;;;;;;;10.18;7.65;;;;;;;-3.93;55.86;95611.13;4226838;28;20043;-44
2023/02/06 08:00:28;;;;;;;16.02;8.75;;;;;;;-4.02;55.03;95614.00;4214636;28;20481;-45
2023/02/06 08:02:29;;;;;;;12.07;7.70;;;;;;;-4.18;55.14;95611.06;4223679;28;20135;-44
2023/02/06 08:04:33;;;;;;;17.15;8.90;;;;;;;-4.16;55.68;95621.25;4223866;28;20078;-41
2023/02/06 08:06:35;;;;;;;14.38;8.18;;;;;;;-4.33;56.55;95616.66;4223591;28;20047;-42
2023/02/06 08:08:37;;;;;;;14.98;7.63;;;;;;;-4.44;57.06;95618.72;4221896;28;20048;-41
2023/02/06 08:10:39;;;;;;;9.65;6.47;;;;;;;-4.68;56.26;95618.56;4226429;28;20063;-45
2023/02/06 08:12:41;;;;;;;8.45;5.55;;;;;;;-4.51;56.84;95619.78;4217803;28;20052;-43
2023/02/06 08:14:44;;;;;;;10.82;6.22;;;;;;;-4.25;56.37;95617.25;4219443;28;20043;-43
2023/02/06 08:16:48;;;;;;;10.35;5.90;;;;;;;-4.06;55.99;95621.81;4222749;28;20106;-44
2023/02/06 08:18:50;;;;;;;;;;;;;;;-3.93;55.52;95618.81;4227074;28;20044;-45
2023/02/06 08:20:52;;;;;;;11.75;6.75;;;;;;;-4.33;55.07;95627.72;4226767;28;19931;-42
2023/02/06 08:22:53;;;;;;;13.10;6.32;;;;;;;-4.38;55.44;95621.91;4222877;28;20592;-43
2023/02/06 08:24:55;;;;;;;11.43;6.68;;;;;;;-4.03;56.16;95626.81;4214641;28;20060;-43
2023/02/06 08:26:57;;;;;;;10.18;6.35;;;;;;;-3.81;55.56;95616.72;4222979;28;20055;-45
2023/02/06 08:29:01;;;;;;;15.48;6.35;;;;;;;-3.89;55.42;95617.00;4223450;28;20540;-44
2023/02/06 08:31:09;;;;;;;;;;;;;;;-4.23;56.11;95623.16;4225659;28;20055;-43
2023/02/06 08:33:11;;;;;;;11.95;6.35;;;;;;;-4.14;55.91;95625.44;4213621;28;20019;-44
2023/02/06 08:35:13;;;;;;;12.68;6.22;;;;;;;-3.89;55.92;95618.69;4215921;28;20127;-44
2023/02/06 08:37:14;;;;;;;11.77;6.68;;;;;;;-3.77;55.29;95620.88;4230438;28;20051;-44
2023/02/06 08:39:18;;;;;;;8.02;5.15;;;;;;;-3.72;55.74;95619.00;4218614;28;20139;-43
2023/02/06 08:41:23;;;;;;;8.77;4.70;;;;;;;-3.42;53.70;95606.91;4228686;28;20073;-44
2023/02/06 08:43:25;;;;;;;9.10;6.10;;;;;;;-3.50;54.03;95624.25;4230102;28;20136;-45
2023/02/06 08:45:26;;;;;;;10.43;5.53;;;;;;;-3.20;53.97;95619.81;4228224;28;20051;-45
2023/02/06 08:47:28;;;;;;;10.57;5.25;;;;;;;-2.97;53.49;95623.25;4216949;28;20105;-43
2023/02/06 08:49:30;;;;;;;10.40;5.80;;;;;;;-2.90;53.36;95624.75;4226592;28;20093;-45
2023/02/06 08:51:32;;;;;;;8.88;5.97;;;;;;;-2.61;52.84;95621.09;4215230;28;20074;-43
2023/02/06 08:53:35;;;;;;;9.20;5.85;;;;;;;-2.34;53.44;95631.22;4211550;28;20494;-41
2023/02/06 08:55:36;;;;;;;9.93;5.50;;;;;;;-2.10;52.32;95627.72;4247467;27;20047;-44
2023/02/06 08:57:38;;;;;;;9.48;5.28;;;;;;;-2.43;52.06;95631.56;4225827;28;20123;-44
2023/02/06 08:59:40;;;;;;;8.57;5.45;;;;;;;-2.41;52.27;95624.63;4215680;28;20481;-44
2023/02/06 09:01:44;;;;;;;10.75;5.75;;;;;;;-2.40;52.49;95626.31;4214508;28;20097;-44
2023/02/06 09:03:46;;;;;;;;;;;;;;;-2.17;52.91;95631.41;4217382;28;20123;-44
2023/02/06 09:05:48;;;;;;;7.35;5.07;;;;;;;-1.94;52.55;95624.53;4218901;28;19920;-45
2023/02/06 09:07:51;;;;;;;11.25;6.40;;;;;;;-2.01;52.40;95631.66;4221215;28;20093;-43
2023/02/06 09:09:52;;;;;;;8.98;5.03;;;;;;;-2.39;52.13;95626.25;4214702;28;20091;-43
2023/02/06 09:11:57;;;;;;;9.23;5.13;;;;;;;-2.30;52.82;95630.22;4227872;28;20051;-60
2023/02/06 09:13:59;;;;;;;;;;;;;;;-2.13;52.44;95625.28;4220822;28;20075;-61
2023/02/06 09:16:00;;;;;;;10.85;5.53;;;;;;;-1.94;51.48;95619.41;4218063;28;19999;-59
2023/02/06 09:18:03;;;;;;;8.85;4.68;;;;;;;-2.23;50.51;95628.25;4226026;28;20056;-59
2023/02/06 09:20:04;;;;;;;7.85;5.18;;;;;;;-2.37;51.46;95626.19;4219967;28;20169;-59
2023/02/06 09:22:06;;;;;;;6.72;4.47;;;;;;;-2.27;51.77;95633.50;4227365;28;20048;-60
2023/02/06 09:24:08;;;;;;;7.32;4.53;;;;;;;-2.99;51.94;95632.72;4219898;28;20438;-59
2023/02/06 09:26:10;;;;;;;7.03;4.28;;;;;;;-3.06;52.82;95636.41;4216336;28;20486;-60
2023/02/06 09:28:12;;;;;;;7.25;5.00;;;;;;;-2.64;52.99;95623.78;4213989;28;20051;-57
2023/02/06 09:30:14;;;;;;;9.77;4.43;;;;;;;-2.33;52.11;95633.72;4214332;28;20070;-58
2023/02/06 09:32:16;;;;;;;10.05;5.78;;;;;;;-2.18;51.42;95624.59;4228168;28;20051;-60
2023/02/06 09:34:17;;;;;;;10.10;6.15;;;;;;;-2.07;52.11;95632.72;4227743;28;20073;-60
2023/02/06 09:36:20;;;;;;;8.85;5.65;;;;;;;-1.81;51.67;95633.41;4226681;28;20138;-60
2023/02/06 09:38:22;;;;;;;8.98;4.35;;;;;;;-1.63;51.03;95631.84;4227000;28;20422;-60
2023/02/06 09:40:25;;;;;;;9.50;5.30;;;;;;;-1.51;50.62;95621.06;4228941;28;20071;-59
2023/02/06 09:42:35;;;;;;;7.70;4.60;;;;;;;-1.46;49.66;95620.91;4227837;28;20361;-59
2023/02/06 09:45:19;;;;;;;7.68;4.13;;;;;;;-1.51;49.83;95615.09;4225595;28;20052;-59
2023/02/06 09:47:28;;;;;;;9.32;4.95;;;;;;;-2.21;49.56;95619.59;4227232;28;20039;-58
2023/02/06 09:49:38;;;;;;;6.43;3.80;;;;;;;-2.25;50.81;95612.06;4224796;28;20062;-59
2023/02/06 09:51:56;;;;;;;9.18;4.30;;;;;;;-2.19;50.75;95611.84;4198894;28;20109;-58
2023/02/06 09:54:28;;;;;;;7.25;4.15;;;;;;;-2.14;50.89;95608.19;4229307;28;20055;-59
2023/02/06 09:56:49;;;;;;;7.05;4.43;;;;;;;-1.95;51.22;95607.47;4249920;27;20087;-60